KMOX

Morris Municipal - Charlie Schmidt Field Airport

Morris, Minnesota, USA
METAR KMOX 212315Z AUTO 33007KT 10SM CLR 23/09 A3017 RMK AO2
Observed Flight Rules
Aug-21 @ 23:15 UTC (32 minutes ago) Visual Flight Rules
Wind Visibility Clouds
330° at 7 knots 10 miles
  • Clear skies
Temperatures Readings
Current 23°C / 73°F
Dewpoint 9°C / 48°F
Humidity 41%
Altimeter 30.17" Hg
Pressure 1022 hPa
Elevation 344
METAR KMOX 212315Z AUTO 33007KT 10SM CLR 23/09 A3017 RMK AO2
Observed Flight Rules
Aug-21 @ 23:15 UTC
(32 minutes ago)
VFR
Wind Visibility
330° at 7 knots 10 miles
Clouds
  • Clear skies
Temperature Dewpoint
23°C / 73°F 9°C / 48°F
Humidity Altimeter Pressure
41% 30.17" Hg 1022 hPa